createdAt,value
2022-12-11T00:00:29.117Z,26.80
2022-12-11T00:02:56.706Z,31.80
2022-12-11T00:05:24.390Z,32.17
2022-12-11T00:07:51.765Z,30.67
2022-12-11T00:10:19.161Z,28.20
2022-12-11T00:12:46.513Z,29.70
2022-12-11T00:15:14.015Z,27.17
2022-12-11T00:17:41.396Z,31.20
2022-12-11T00:20:09.660Z,31.97
2022-12-11T00:22:37.014Z,35.60
2022-12-11T00:25:04.905Z,28.23
2022-12-11T00:27:32.321Z,34.77
2022-12-11T00:30:00.364Z,36.20
2022-12-11T00:32:28.788Z,35.60
2022-12-11T00:34:56.131Z,39.20
2022-12-11T00:37:23.868Z,33.50
2022-12-11T00:39:51.520Z,37.13
2022-12-11T00:42:18.805Z,41.37
2022-12-11T00:44:46.341Z,36.73
2022-12-11T00:47:13.690Z,36.70
2022-12-11T00:49:45.127Z,36.03
2022-12-11T00:52:17.595Z,33.63
2022-12-11T00:54:46.191Z,32.10
2022-12-11T00:57:13.846Z,40.50
2022-12-11T00:59:41.115Z,29.57
2022-12-11T01:02:08.417Z,32.47
2022-12-11T01:04:36.904Z,31.77
2022-12-11T01:07:04.205Z,33.00
2022-12-11T01:09:50.238Z,31.83
2022-12-11T01:12:17.778Z,32.13
2022-12-11T01:14:45.166Z,34.93
2022-12-11T01:17:12.472Z,36.03
2022-12-11T01:19:40.162Z,30.53
2022-12-11T01:22:07.592Z,33.63
2022-12-11T01:24:35.201Z,31.37
2022-12-11T01:27:02.998Z,34.10
2022-12-11T01:29:30.957Z,36.07
2022-12-11T01:31:58.252Z,32.60
2022-12-11T01:34:25.569Z,34.43
2022-12-11T01:36:53.304Z,33.10
2022-12-11T01:39:20.588Z,34.97
2022-12-11T01:41:48.097Z,32.17
2022-12-11T01:44:15.353Z,36.47
2022-12-11T01:46:43.116Z,35.47
2022-12-11T01:49:15.065Z,31.77
2022-12-11T01:51:57.201Z,34.00
2022-12-11T01:54:27.476Z,37.37
2022-12-11T01:56:58.228Z,37.87
2022-12-11T01:59:29.651Z,34.17
2022-12-11T02:02:19.376Z,36.97
2022-12-11T02:04:48.616Z,38.20
2022-12-11T02:07:16.503Z,36.73
2022-12-11T02:09:46.223Z,38.77
2022-12-11T02:12:33.858Z,32.53
2022-12-11T02:15:29.168Z,31.53
2022-12-11T02:18:02.524Z,31.60
2022-12-11T02:21:02.997Z,29.37
2022-12-11T02:23:58.672Z,33.70
2022-12-11T02:26:38.143Z,35.90
2022-12-11T02:29:10.731Z,32.47
2022-12-11T02:31:54.246Z,37.23
2022-12-11T02:34:41.262Z,34.67
2022-12-11T02:37:14.763Z,33.17
2022-12-11T02:39:44.338Z,32.47
2022-12-11T02:42:14.359Z,32.17
2022-12-11T02:44:42.956Z,33.63
2022-12-11T02:47:14.863Z,29.93
2022-12-11T02:49:45.406Z,32.17
2022-12-11T02:52:17.516Z,33.77
2022-12-11T02:54:45.897Z,34.00
2022-12-11T02:57:28.114Z,34.43
2022-12-11T02:59:55.528Z,37.00
2022-12-11T03:02:22.992Z,39.87
2022-12-11T03:04:50.592Z,36.87
2022-12-11T03:07:25.301Z,34.00
2022-12-11T03:09:53.025Z,33.30
2022-12-11T03:12:33.130Z,31.73
2022-12-11T03:15:03.831Z,30.47
2022-12-11T03:17:59.243Z,28.27
2022-12-11T03:20:50.214Z,32.77
2022-12-11T03:23:26.467Z,33.80
2022-12-11T03:26:01.182Z,31.40
2022-12-11T03:28:54.397Z,36.07
2022-12-11T03:31:46.269Z,34.77
2022-12-11T03:34:37.916Z,39.37
2022-12-11T03:37:07.218Z,35.13
2022-12-11T03:39:39.049Z,37.90
2022-12-11T03:42:10.277Z,32.30
2022-12-11T03:44:38.078Z,32.03
2022-12-11T03:47:08.904Z,32.07
2022-12-11T03:49:40.146Z,29.00
2022-12-11T03:52:09.975Z,33.60
2022-12-11T03:54:39.794Z,38.47
2022-12-11T03:57:09.280Z,33.50
2022-12-11T03:59:36.632Z,29.47
2022-12-11T04:02:10.862Z,29.27
2022-12-11T04:04:39.511Z,31.10
2022-12-11T04:07:08.070Z,30.17
2022-12-11T04:09:36.008Z,34.07
2022-12-11T04:12:03.601Z,31.83
2022-12-11T04:14:50.773Z,31.50
2022-12-11T04:17:38.777Z,30.47
2022-12-11T04:20:26.045Z,32.30
2022-12-11T04:23:11.969Z,31.30
2022-12-11T04:25:39.352Z,31.30
2022-12-11T04:28:06.696Z,32.20
2022-12-11T04:30:34.664Z,32.23
2022-12-11T04:33:02.377Z,30.30
2022-12-11T04:35:29.868Z,34.13
2022-12-11T04:37:57.344Z,33.93
2022-12-11T04:40:24.729Z,33.83
2022-12-11T04:42:52.016Z,32.53
2022-12-11T04:45:19.430Z,29.53
2022-12-11T04:47:47.054Z,34.57
2022-12-11T04:50:15.612Z,32.80
2022-12-11T04:52:44.065Z,33.70
2022-12-11T04:55:12.177Z,33.07
2022-12-11T04:57:42.678Z,32.53
2022-12-11T05:00:12.592Z,32.77
2022-12-11T05:02:41.484Z,32.43
2022-12-11T05:05:10.673Z,33.57
2022-12-11T05:07:38.813Z,31.33
2022-12-11T05:10:06.731Z,29.30
2022-12-11T05:12:34.062Z,29.53
2022-12-11T05:15:01.364Z,32.80
2022-12-11T05:17:28.636Z,28.30
2022-12-11T05:19:55.943Z,32.43
2022-12-11T05:22:23.270Z,30.10
2022-12-11T05:24:50.703Z,38.10
2022-12-11T05:27:17.980Z,28.80
2022-12-11T05:29:45.248Z,32.93
2022-12-11T05:32:12.572Z,29.30
2022-12-11T05:34:39.873Z,31.97
2022-12-11T05:37:07.773Z,32.50
2022-12-11T05:39:35.144Z,29.53
2022-12-11T05:42:02.460Z,34.17
2022-12-11T05:44:29.927Z,32.03
2022-12-11T05:46:57.251Z,32.33
2022-12-11T05:49:29.145Z,31.57
2022-12-11T05:51:59.248Z,34.90
2022-12-11T05:54:26.557Z,32.03
2022-12-11T05:56:54.126Z,29.33
2022-12-11T05:59:21.482Z,36.43
2022-12-11T06:01:48.882Z,31.80
2022-12-11T06:04:16.229Z,33.03
2022-12-11T06:06:43.989Z,33.13
2022-12-11T06:09:15.481Z,32.63
2022-12-11T06:11:43.317Z,38.97
2022-12-11T06:14:11.122Z,35.00
2022-12-11T06:16:38.536Z,35.30
2022-12-11T06:19:06.891Z,38.67
2022-12-11T06:21:34.277Z,37.63
2022-12-11T06:24:04.228Z,33.93
2022-12-11T06:26:32.291Z,32.77
2022-12-11T06:29:00.213Z,36.90
2022-12-11T06:31:28.120Z,32.77
2022-12-11T06:33:55.536Z,34.33
2022-12-11T06:36:24.369Z,38.70
2022-12-11T06:38:52.445Z,33.63
2022-12-11T06:41:19.822Z,39.17
2022-12-11T06:43:49.385Z,34.03
2022-12-11T06:46:19.259Z,32.97
2022-12-11T06:48:48.026Z,33.87
2022-12-11T06:51:20.595Z,37.40
2022-12-11T06:53:53.290Z,37.43
2022-12-11T06:56:21.540Z,39.83
2022-12-11T06:58:48.880Z,37.50
2022-12-11T07:01:20.200Z,39.60
2022-12-11T07:03:47.977Z,35.30
2022-12-11T07:06:15.999Z,32.43
2022-12-11T07:08:44.235Z,35.13
2022-12-11T07:11:14.869Z,31.07
2022-12-11T07:13:42.556Z,30.13
2022-12-11T07:16:11.743Z,30.23
2022-12-11T07:18:46.556Z,30.70
2022-12-11T07:21:14.387Z,27.87
2022-12-11T07:23:42.336Z,32.73
2022-12-11T07:26:13.224Z,33.13
2022-12-11T07:28:41.934Z,30.73
2022-12-11T07:31:15.505Z,30.53
2022-12-11T07:33:43.688Z,34.00
2022-12-11T07:36:12.687Z,30.20
2022-12-11T07:38:40.495Z,34.90
2022-12-11T07:41:14.844Z,32.43
2022-12-11T07:43:45.268Z,33.47
2022-12-11T07:46:36.520Z,31.60
2022-12-11T07:49:05.897Z,32.47
2022-12-11T07:51:35.685Z,36.37
2022-12-11T07:54:10.650Z,31.17
2022-12-11T07:56:43.755Z,35.03
2022-12-11T07:59:12.396Z,37.50
2022-12-11T08:01:40.526Z,38.47
2022-12-11T08:04:10.672Z,37.53
2022-12-11T08:06:39.787Z,33.87
2022-12-11T08:09:33.175Z,35.53
2022-12-11T08:12:00.778Z,35.10
2022-12-11T08:14:28.370Z,35.47
2022-12-11T08:16:57.433Z,35.23
2022-12-11T08:19:24.791Z,36.37
2022-12-11T08:21:52.153Z,40.97
2022-12-11T08:24:20.832Z,38.87
2022-12-11T08:26:48.477Z,35.67
2022-12-11T08:29:15.786Z,38.77
2022-12-11T08:31:43.244Z,38.20
2022-12-11T08:34:13.697Z,38.53
2022-12-11T08:36:41.461Z,41.20
2022-12-11T08:39:08.720Z,34.40
2022-12-11T08:41:36.102Z,37.00
2022-12-11T08:44:05.987Z,38.47
2022-12-11T08:46:33.643Z,37.53
2022-12-11T08:49:01.003Z,39.70
2022-12-11T08:51:29.595Z,40.90
2022-12-11T08:53:59.146Z,39.13
2022-12-11T08:56:27.681Z,41.07
2022-12-11T08:58:55.427Z,40.70
2022-12-11T09:01:25.439Z,40.50
2022-12-11T09:03:54.224Z,40.37
2022-12-11T09:06:23.689Z,40.90
2022-12-11T09:08:53.390Z,39.10
2022-12-11T09:11:24.265Z,37.27
2022-12-11T09:13:52.143Z,37.30
2022-12-11T09:16:22.039Z,36.90
2022-12-11T09:18:50.811Z,35.27
2022-12-11T09:21:20.927Z,38.37
2022-12-11T09:23:49.069Z,33.57
2022-12-11T09:26:18.184Z,40.10
2022-12-11T09:28:46.859Z,37.40
2022-12-11T09:31:18.552Z,42.47
2022-12-11T09:33:46.327Z,38.53
2022-12-11T09:36:13.679Z,38.30
2022-12-11T09:38:43.896Z,41.53
2022-12-11T09:41:32.532Z,40.37
2022-12-11T09:44:38.197Z,38.40
2022-12-11T09:47:27.335Z,32.80
2022-12-11T09:50:14.672Z,37.90
2022-12-11T09:52:59.330Z,38.57
2022-12-11T09:55:35.421Z,36.03
2022-12-11T09:58:22.953Z,36.67
2022-12-11T10:01:15.178Z,31.00
2022-12-11T10:03:53.777Z,40.83
2022-12-11T10:06:33.363Z,36.73
2022-12-11T10:09:30.785Z,35.43
2022-12-11T10:12:24.505Z,36.77
2022-12-11T10:15:10.520Z,34.07
2022-12-11T10:17:39.628Z,37.77
2022-12-11T10:20:28.553Z,40.43
2022-12-11T10:22:57.259Z,35.00
2022-12-11T10:25:32.200Z,36.57
2022-12-11T10:28:08.733Z,39.27
2022-12-11T10:30:47.768Z,34.23
2022-12-11T10:33:30.173Z,32.43
2022-12-11T10:35:58.712Z,34.40
2022-12-11T10:38:31.918Z,35.20
2022-12-11T10:41:02.206Z,41.30
2022-12-11T10:43:47.748Z,38.43
2022-12-11T10:46:16.618Z,35.40
2022-12-11T10:48:49.662Z,33.13
2022-12-11T10:51:17.650Z,33.17
2022-12-11T10:53:50.829Z,30.87
2022-12-11T10:56:28.833Z,40.80
2022-12-11T10:58:57.638Z,34.30
2022-12-11T11:01:28.835Z,40.50
2022-12-11T11:04:34.680Z,37.93
2022-12-11T11:07:14.313Z,34.93
2022-12-11T11:09:41.694Z,39.20
2022-12-11T11:12:27.108Z,35.40
2022-12-11T11:15:03.781Z,40.97
2022-12-11T11:17:35.090Z,38.17
2022-12-11T11:20:12.820Z,38.77
2022-12-11T11:22:47.397Z,38.87
2022-12-11T11:25:24.095Z,40.90
2022-12-11T11:27:58.571Z,42.13
2022-12-11T11:30:29.342Z,35.67
2022-12-11T11:33:02.256Z,37.60
2022-12-11T11:35:31.572Z,36.43
2022-12-11T11:38:09.770Z,38.33
2022-12-11T11:40:42.220Z,39.73
2022-12-11T11:43:44.087Z,39.67
2022-12-11T11:46:30.347Z,38.20
2022-12-11T11:49:22.547Z,38.30
2022-12-11T11:52:01.046Z,35.27
2022-12-11T11:54:34.969Z,36.83
2022-12-11T11:57:15.866Z,38.27
2022-12-11T11:59:50.177Z,35.87
2022-12-11T12:02:18.648Z,40.43
2022-12-11T12:04:46.906Z,43.33
2022-12-11T12:07:36.524Z,46.93
2022-12-11T12:10:21.260Z,49.57
2022-12-11T12:12:58.072Z,47.03
2022-12-11T12:15:53.949Z,44.40
2022-12-11T12:18:52.640Z,42.47
2022-12-11T12:21:42.089Z,54.03
2022-12-11T12:24:53.400Z,50.70
2022-12-11T12:27:52.873Z,52.23
2022-12-11T12:30:23.409Z,49.40
2022-12-11T12:33:16.210Z,50.57
2022-12-11T12:36:13.955Z,49.27
2022-12-11T12:39:07.857Z,45.57
2022-12-11T12:42:04.002Z,49.57
2022-12-11T12:45:04.857Z,45.40
2022-12-11T12:47:35.101Z,45.57
2022-12-11T12:50:04.597Z,46.57
2022-12-11T12:52:38.754Z,42.60
2022-12-11T12:55:28.811Z,41.27
2022-12-11T12:58:00.348Z,40.07
2022-12-11T13:00:43.116Z,42.87
2022-12-11T13:03:15.392Z,40.73
2022-12-11T13:05:46.141Z,37.33
2022-12-11T13:08:23.695Z,41.70
2022-12-11T13:11:06.082Z,39.30
2022-12-11T13:13:48.974Z,38.43
2022-12-11T13:16:19.535Z,35.17
2022-12-11T13:18:48.281Z,39.93
2022-12-11T13:21:35.516Z,38.40
2022-12-11T13:24:45.425Z,38.90
2022-12-11T13:27:24.048Z,37.37
2022-12-11T13:29:51.840Z,40.37
2022-12-11T13:32:24.080Z,36.13
2022-12-11T13:34:56.325Z,37.83
2022-12-11T13:37:37.106Z,42.37
2022-12-11T13:40:14.161Z,38.87
2022-12-11T13:42:51.292Z,39.17
2022-12-11T13:45:52.471Z,36.83
2022-12-11T13:48:35.307Z,44.57
2022-12-11T13:51:04.778Z,45.07
2022-12-11T13:53:32.795Z,44.20
2022-12-11T13:56:02.928Z,46.13
2022-12-11T13:58:34.473Z,43.97
2022-12-11T14:01:07.685Z,43.33
2022-12-11T14:03:35.752Z,39.97
2022-12-11T14:06:18.226Z,39.90
2022-12-11T14:08:49.926Z,42.77
2022-12-11T14:11:55.057Z,46.13
2022-12-11T14:14:26.562Z,46.83
2022-12-11T14:16:54.494Z,44.73
2022-12-11T14:19:23.244Z,45.97
2022-12-11T14:21:56.835Z,43.57
2022-12-11T14:24:26.820Z,43.77
2022-12-11T14:26:54.714Z,45.87
2022-12-11T14:29:33.205Z,43.23
2022-12-11T14:32:06.544Z,41.83
2022-12-11T14:34:45.418Z,39.97
2022-12-11T14:37:16.241Z,43.13
2022-12-11T14:40:03.466Z,45.50
2022-12-11T14:42:38.004Z,41.23
2022-12-11T14:45:15.784Z,38.83
2022-12-11T14:47:44.780Z,41.60
2022-12-11T14:50:23.895Z,42.33
2022-12-11T14:53:17.504Z,45.83
2022-12-11T14:55:47.897Z,44.23
2022-12-11T14:58:22.703Z,47.97
2022-12-11T15:01:20.778Z,38.70
2022-12-11T15:03:48.378Z,37.43
2022-12-11T15:06:43.475Z,41.97
2022-12-11T15:09:36.338Z,34.60
2022-12-11T15:12:18.406Z,37.97
2022-12-11T15:14:55.746Z,35.00
2022-12-11T15:17:25.421Z,36.73
2022-12-11T15:20:14.071Z,35.67
2022-12-11T15:22:44.467Z,39.03
2022-12-11T15:25:25.012Z,38.73
2022-12-11T15:27:55.002Z,38.60
2022-12-11T15:30:26.662Z,41.43
2022-12-11T15:33:09.276Z,41.23
2022-12-11T15:35:39.871Z,38.77
2022-12-11T15:38:26.298Z,42.03
2022-12-11T15:40:53.622Z,37.93
2022-12-11T15:43:21.030Z,38.80
2022-12-11T15:45:48.455Z,36.83
2022-12-11T15:48:15.864Z,38.93
2022-12-11T15:50:43.343Z,37.70
2022-12-11T15:53:10.622Z,43.77
2022-12-11T15:55:38.816Z,39.20
2022-12-11T15:58:09.793Z,40.70
2022-12-11T16:00:37.144Z,43.80
2022-12-11T16:03:04.788Z,40.73
2022-12-11T16:05:32.175Z,42.60
2022-12-11T16:07:59.801Z,37.57
2022-12-11T16:10:27.850Z,42.30
2022-12-11T16:12:59.297Z,37.70
2022-12-11T16:15:27.202Z,42.37
2022-12-11T16:18:02.985Z,43.67
2022-12-11T16:20:31.420Z,48.77
2022-12-11T16:22:59.298Z,44.43
2022-12-11T16:25:27.833Z,42.80
2022-12-11T16:27:56.998Z,44.30
2022-12-11T16:30:25.178Z,45.30
2022-12-11T16:32:53.098Z,42.07
2022-12-11T16:35:21.753Z,40.67
2022-12-11T16:37:50.905Z,40.77
2022-12-11T16:40:19.537Z,41.53
2022-12-11T16:42:47.623Z,36.77
2022-12-11T16:45:26.471Z,36.10
2022-12-11T16:47:54.454Z,43.00
2022-12-11T16:50:24.083Z,38.03
2022-12-11T16:53:02.455Z,36.90
2022-12-11T16:55:36.369Z,34.87
2022-12-11T16:58:04.952Z,39.67
2022-12-11T17:00:34.481Z,41.40
2022-12-11T17:03:02.152Z,33.83
2022-12-11T17:05:30.092Z,36.03
2022-12-11T17:08:18.805Z,36.30
2022-12-11T17:10:46.186Z,35.53
2022-12-11T17:13:13.660Z,35.33
2022-12-11T17:15:42.474Z,36.30
2022-12-11T17:18:10.512Z,32.40
2022-12-11T17:20:45.000Z,36.27
2022-12-11T17:23:13.211Z,35.43
2022-12-11T17:25:45.342Z,32.30
2022-12-11T17:28:16.057Z,34.90
2022-12-11T17:30:53.440Z,32.30
2022-12-11T17:33:24.774Z,29.60
2022-12-11T17:36:06.879Z,36.73
2022-12-11T17:38:35.219Z,30.27
2022-12-11T17:41:07.100Z,30.97
2022-12-11T17:43:53.023Z,33.40
2022-12-11T17:46:24.647Z,33.93
2022-12-11T17:49:27.504Z,41.53
2022-12-11T17:52:00.781Z,35.40
2022-12-11T17:54:42.128Z,32.10
2022-12-11T17:57:09.868Z,36.20
2022-12-11T17:59:37.205Z,31.87
2022-12-11T18:02:04.703Z,33.27
2022-12-11T18:04:32.394Z,34.27
2022-12-11T18:07:00.348Z,32.37
2022-12-11T18:09:27.739Z,31.03
2022-12-11T18:11:55.060Z,32.23
2022-12-11T18:14:22.467Z,29.80
2022-12-11T18:16:49.984Z,31.13
2022-12-11T18:19:17.336Z,34.67
2022-12-11T18:21:46.105Z,34.43
2022-12-11T18:24:13.379Z,34.77
2022-12-11T18:26:42.870Z,31.13
2022-12-11T18:29:10.811Z,38.03
2022-12-11T18:31:42.584Z,32.33
2022-12-11T18:34:11.255Z,35.63
2022-12-11T18:36:40.700Z,42.40
2022-12-11T18:39:08.615Z,37.13
2022-12-11T18:41:39.521Z,31.17
2022-12-11T18:44:09.963Z,37.47
2022-12-11T18:46:39.880Z,33.37
2022-12-11T18:49:07.879Z,40.13
2022-12-11T18:54:22.444Z,43.53
2022-12-11T19:00:25.949Z,37.73
2022-12-11T19:02:53.589Z,41.07
2022-12-11T19:05:21.317Z,38.67
2022-12-11T19:07:48.834Z,40.70
2022-12-11T19:10:16.470Z,39.33
2022-12-11T19:12:43.901Z,37.50
2022-12-11T19:15:12.099Z,39.93
2022-12-11T19:17:41.049Z,43.47
2022-12-11T19:20:40.544Z,41.53
2022-12-11T19:23:51.301Z,43.40
2022-12-11T19:26:35.158Z,39.77
2022-12-11T19:32:16.672Z,40.57
2022-12-11T19:47:49.859Z,42.43
2022-12-11T19:56:38.365Z,40.10
2022-12-11T19:59:09.755Z,40.43
2022-12-11T20:01:41.417Z,35.50
2022-12-11T20:04:18.172Z,41.83
2022-12-11T20:06:50.020Z,36.97
2022-12-11T20:09:19.802Z,41.13
2022-12-11T20:22:47.220Z,42.97
2022-12-11T20:25:17.030Z,44.83
2022-12-11T20:31:26.572Z,36.27
2022-12-11T20:40:24.562Z,41.23
2022-12-11T20:42:52.798Z,37.63
2022-12-11T20:45:20.542Z,40.60
2022-12-11T20:47:54.112Z,38.37
2022-12-11T20:50:26.793Z,37.67
2022-12-11T20:52:54.417Z,38.77
2022-12-11T20:55:21.886Z,41.47
2022-12-11T20:57:51.362Z,38.67
2022-12-11T21:00:19.284Z,42.43
2022-12-11T21:02:49.917Z,38.30
2022-12-11T21:05:17.690Z,42.03
2022-12-11T21:07:45.187Z,38.87
2022-12-11T21:10:14.326Z,40.70
2022-12-11T21:12:56.936Z,42.17
2022-12-11T22:41:29.053Z,41.10
2022-12-11T22:43:59.647Z,42.73
2022-12-11T22:46:31.152Z,39.27
2022-12-11T22:49:00.717Z,37.77
2022-12-11T22:51:32.569Z,40.43
2022-12-11T22:54:30.764Z,41.30
2022-12-11T23:06:45.777Z,38.93
2022-12-11T23:09:14.852Z,43.97
2022-12-11T23:11:43.641Z,43.03
2022-12-11T23:14:17.143Z,43.50
2022-12-11T23:16:45.527Z,40.13
2022-12-11T23:19:16.890Z,41.70
2022-12-11T23:21:46.864Z,44.27
2022-12-11T23:24:16.914Z,41.70
2022-12-11T23:32:15.006Z,43.63
2022-12-11T23:34:46.337Z,42.10
2022-12-11T23:37:14.153Z,39.70
2022-12-11T23:39:42.366Z,37.00
2022-12-11T23:42:18.351Z,41.47
2022-12-11T23:45:20.677Z,43.80
2022-12-11T23:47:50.718Z,41.77
2022-12-11T23:50:21.315Z,42.30
2022-12-11T23:52:54.983Z,40.50
